Time;durP1;ratioP1;P1;durP2;ratioP2;P2;SDS_P1;SDS_P2;PMS_P1;PMS_P2;Temp;Humidity;BMP_temperature;BMP_pressure;BME280_temperature;BME280_humidity;BME280_pressure;Samples;Min_cycle;Max_cycle;Signal;HPM_P1;HPM_P2
2021/12/06 00:01:11;;;;;;;;;5.25;3.25;;;;;8.42;64.59;100974.94;5019695;28;45280;-80
2021/12/06 00:04:00;;;;;;;;;6.00;4.25;;;;;8.36;65.14;100975.91;5008228;28;46595;-81
2021/12/06 00:06:29;;;;;;;;;5.00;3.00;;;;;8.35;64.94;100978.53;5015365;28;45225;-81
2021/12/06 00:08:54;;;;;;;;;3.00;3.00;;;;;8.36;65.15;100978.53;5020220;28;45367;-83
2021/12/06 00:11:20;;;;;;;;;3.50;3.50;;;;;8.32;65.26;100990.81;5015960;28;47227;-83
2021/12/06 00:13:49;;;;;;;;;4.00;4.00;;;;;8.35;65.17;100984.63;5016881;28;48044;-83
2021/12/06 00:16:19;;;;;;;;;4.75;4.75;;;;;8.36;65.70;100985.50;5013682;28;45306;-83
2021/12/06 00:18:46;;;;;;;;;4.50;4.50;;;;;8.35;65.69;100994.25;5013839;28;45369;-84
2021/12/06 00:21:12;;;;;;;;;4.75;3.25;;;;;8.31;65.06;100996.94;5018196;28;45583;-85
2021/12/06 00:23:39;;;;;;;;;3.75;3.75;;;;;8.32;65.31;101003.91;5019622;28;47536;-85
2021/12/06 00:26:05;;;;;;;;;6.25;4.25;;;;;8.32;65.84;101001.28;5019546;28;45670;-84
2021/12/06 00:28:31;;;;;;;;;7.25;4.50;;;;;8.33;65.87;101000.41;5031788;28;45273;-85
2021/12/06 00:30:57;;;;;;;;;5.25;3.00;;;;;8.37;65.39;101000.34;5017217;28;47342;-84
2021/12/06 00:33:25;;;;;;;;;4.75;4.00;;;;;8.37;65.53;100992.50;5021134;28;45424;-81
2021/12/06 00:35:50;;;;;;;;;3.00;3.00;;;;;8.42;65.26;100995.88;5014263;28;45744;-80
2021/12/06 00:38:16;;;;;;;;;6.00;4.75;;;;;8.39;65.59;100994.19;5034505;28;45452;-80
2021/12/06 00:40:46;;;;;;;;;5.75;5.25;;;;;8.39;65.69;100993.31;5009524;28;46110;-81
2021/12/06 00:43:12;;;;;;;;;5.25;5.25;;;;;8.38;65.60;101004.69;5021226;28;45491;-81
2021/12/06 00:45:40;;;;;;;;;8.75;5.75;;;;;8.37;65.49;101010.81;5012403;28;45170;-81
2021/12/06 00:48:05;;;;;;;;;4.00;4.00;;;;;8.35;65.62;101010.84;5015379;28;45410;-81
2021/12/06 00:50:33;;;;;;;;;5.75;4.00;;;;;8.35;65.32;101020.44;5020783;28;45543;-81
2021/12/06 00:52:59;;;;;;;;;4.00;4.00;;;;;8.28;65.40;101025.81;5020832;28;45694;-81
2021/12/06 00:55:25;;;;;;;;;4.00;4.00;;;;;8.29;65.51;101030.16;5012894;28;45422;-81
2021/12/06 00:57:53;;;;;;;;;6.25;4.25;;;;;8.31;65.95;101031.00;5013299;28;45583;-80
2021/12/06 01:00:25;;;;;;;;;7.00;5.00;;;;;8.32;65.81;101034.50;5006590;28;45485;-79
2021/12/06 01:02:52;;;;;;;;;7.00;5.00;;;;;8.31;66.00;101041.47;5018218;28;46333;-80
2021/12/06 01:05:21;;;;;;;;;4.00;4.00;;;;;8.33;65.71;101042.31;5001873;28;45417;-80
2021/12/06 01:07:47;;;;;;;;;4.50;3.00;;;;;8.35;65.50;101044.00;5014951;28;45304;-81
2021/12/06 01:10:12;;;;;;;;;9.00;5.50;;;;;8.35;66.01;101037.03;5020011;28;45421;-81
2021/12/06 01:12:38;;;;;;;;;6.50;4.25;;;;;8.33;66.14;101034.44;5012635;28;45631;-81
2021/12/06 01:15:06;;;;;;;;;5.25;4.25;;;;;8.36;65.71;101051.88;5010097;28;45193;-82
2021/12/06 01:17:31;;;;;;;;;5.50;5.00;;;;;8.35;66.35;101049.25;5028209;28;45243;-83
2021/12/06 01:19:57;;;;;;;;;6.50;6.25;;;;;8.41;65.93;101051.78;5017941;28;46226;-82
2021/12/06 01:22:39;;;;;;;;;7.00;5.00;;;;;8.42;65.90;101053.50;5019952;28;45997;-83
2021/12/06 01:25:17;;;;;;;;;4.00;4.00;;;;;8.40;65.67;101056.13;5016091;28;45156;-86
2021/12/06 01:28:11;;;;;;;;;5.50;5.00;;;;;8.40;65.75;101058.75;5014763;28;45245;-85
2021/12/06 01:31:37;;;;;;;;;8.00;3.50;;;;;8.42;66.14;101064.00;5008993;28;45523;-84
2021/12/06 01:41:41;;;;;;;;;5.75;3.75;;;;;8.50;66.27;101076.91;5012572;28;45387;-81
2021/12/06 01:44:18;;;;;;;;;5.75;4.00;;;;;8.52;66.05;101086.47;5014131;28;45413;-82
2021/12/06 01:46:52;;;;;;;;;4.50;4.00;;;;;8.50;66.01;101084.78;5019431;28;45454;-80
2021/12/06 01:49:21;;;;;;;;;6.50;3.25;;;;;8.53;66.71;101093.47;5014736;28;45408;-80
2021/12/06 01:51:48;;;;;;;;;6.75;6.00;;;;;8.56;66.49;101092.53;5016659;28;47036;-80
2021/12/06 01:54:16;;;;;;;;;8.50;4.00;;;;;8.59;66.53;101094.28;5020314;28;46476;-80
2021/12/06 01:56:42;;;;;;;;;8.50;4.25;;;;;8.60;66.38;101093.38;5012441;28;45543;-80
2021/12/06 01:59:08;;;;;;;;;4.25;4.25;;;;;8.63;66.13;101098.56;5006400;28;45378;-79
2021/12/06 02:01:35;;;;;;;;;6.50;4.00;;;;;8.64;66.01;101108.16;5019103;28;46320;-80
2021/12/06 02:04:01;;;;;;;;;3.50;3.50;;;;;8.66;65.93;101103.75;5016471;28;47493;-81
2021/12/06 02:06:27;;;;;;;;;4.00;4.00;;;;;8.64;66.60;101110.78;5015885;28;45196;-80
2021/12/06 02:08:53;;;;;;;;;4.00;4.00;;;;;8.63;66.26;101115.16;5013241;28;45327;-80
2021/12/06 02:11:19;;;;;;;;;5.25;4.50;;;;;8.64;66.13;101122.09;5006625;28;45541;-80
2021/12/06 02:14:00;;;;;;;;;4.25;3.00;;;;;8.61;66.79;101116.94;5014782;28;46367;-79
2021/12/06 02:16:35;;;;;;;;;6.00;4.00;;;;;8.61;66.72;101126.53;5019687;28;45296;-83
2021/12/06 02:19:05;;;;;;;;;4.50;3.25;;;;;8.58;66.61;101134.44;5016692;28;45275;-79
2021/12/06 02:21:36;;;;;;;;;6.50;5.00;;;;;8.59;66.70;101139.69;5013667;28;46709;-81
2021/12/06 02:24:06;;;;;;;;;5.50;4.00;;;;;8.55;67.34;101128.34;5014505;28;46228;-81
2021/12/06 02:26:32;;;;;;;;;7.00;6.00;;;;;8.59;67.01;101141.44;5003623;28;45891;-80
2021/12/06 02:28:57;;;;;;;;;4.50;4.00;;;;;8.62;67.24;101137.00;5006636;28;46049;-80
2021/12/06 02:31:26;;;;;;;;;6.75;5.50;;;;;8.61;66.85;101137.91;5005866;28;45367;-80
2021/12/06 02:33:52;;;;;;;;;5.00;4.50;;;;;8.60;66.80;101135.28;5017504;28;46248;-81
2021/12/06 02:36:19;;;;;;;;;4.00;4.00;;;;;8.58;67.40;101132.72;5004475;28;45326;-80
2021/12/06 02:38:45;;;;;;;;;6.25;3.75;;;;;8.60;67.15;101130.91;5015589;28;45524;-83
2021/12/06 02:41:12;;;;;;;;;6.00;4.00;;;;;8.60;67.33;101136.16;5006914;28;45589;-84
2021/12/06 02:43:38;;;;;;;;;5.50;4.75;;;;;8.60;66.84;101137.91;5019367;28;45683;-85
2021/12/06 02:46:04;;;;;;;;;6.25;5.25;;;;;8.54;66.66;101137.09;5007524;28;45439;-80
2021/12/06 02:48:30;;;;;;;;;7.00;4.75;;;;;8.54;67.01;101142.34;5028634;28;45299;-81
2021/12/06 02:50:57;;;;;;;;;6.00;4.75;;;;;8.53;67.10;101143.25;5009625;28;45268;-79
2021/12/06 02:53:25;;;;;;;;;4.50;4.50;;;;;8.60;67.32;101140.53;5017267;28;46432;-79
2021/12/06 02:55:53;;;;;;;;;4.75;4.75;;;;;8.60;67.20;101137.91;5004360;28;46125;-79
2021/12/06 03:01:10;;;;;;;;;6.25;6.00;;;;;8.70;67.04;101135.97;5019198;28;45404;-80
2021/12/06 03:03:36;;;;;;;;;6.00;3.75;;;;;8.72;67.10;101149.91;5016746;28;45678;-80
2021/12/06 03:06:02;;;;;;;;;6.00;4.00;;;;;8.69;66.70;101145.63;5013853;28;45672;-80
2021/12/06 03:08:33;;;;;;;;;4.75;4.00;;;;;8.75;66.69;101149.88;5015617;28;45257;-83
2021/12/06 03:10:59;;;;;;;;;4.00;4.00;;;;;8.75;67.03;101153.34;5013427;28;45480;-81
2021/12/06 03:13:24;;;;;;;;;5.75;5.75;;;;;8.74;66.55;101149.00;5025781;28;47686;-81
2021/12/06 03:15:50;;;;;;;;;8.25;6.25;;;;;8.70;66.59;101157.81;5018173;28;45592;-82
2021/12/06 03:18:15;;;;;;;;;6.25;5.25;;;;;8.69;67.02;101161.34;5017512;28;45460;-82
2021/12/06 03:20:40;;;;;;;;;3.75;3.75;;;;;8.71;66.84;101164.81;5017617;28;47055;-80
2021/12/06 03:23:06;;;;;;;;;6.00;6.00;;;;;8.73;67.02;101173.50;5018358;28;46507;-79
2021/12/06 03:25:31;;;;;;;;;5.00;4.00;;;;;8.77;66.73;101174.28;5002325;28;45585;-81
2021/12/06 03:28:00;;;;;;;;;5.00;3.25;;;;;8.81;66.71;101175.13;5020361;28;45474;-81
2021/12/06 03:30:25;;;;;;;;;4.00;4.00;;;;;8.84;67.05;101180.31;5015142;28;45487;-81
2021/12/06 03:32:51;;;;;;;;;7.00;5.00;;;;;8.88;66.95;101181.97;5002525;28;46501;-80
2021/12/06 03:35:16;;;;;;;;;4.50;4.50;;;;;8.93;66.32;101181.88;5009147;28;45321;-81
2021/12/06 03:37:42;;;;;;;;;5.25;5.00;;;;;8.92;66.57;101183.63;5020545;28;45504;-81
2021/12/06 03:40:08;;;;;;;;;8.25;6.75;;;;;8.93;66.82;101180.13;5008058;28;45499;-81
2021/12/06 03:42:34;;;;;;;;;8.50;7.25;;;;;8.97;66.86;101187.03;5021376;28;45485;-81
2021/12/06 03:45:00;;;;;;;;;9.75;8.00;;;;;8.96;66.41;101180.03;5008866;28;45406;-81
2021/12/06 03:47:29;;;;;;;;;11.50;6.75;;;;;8.94;66.79;101173.97;5022217;28;45480;-81
2021/12/06 03:49:55;;;;;;;;;6.75;6.00;;;;;8.97;66.60;101178.28;5021231;28;45253;-80
2021/12/06 03:52:22;;;;;;;;;10.00;7.00;;;;;9.00;66.70;101181.75;5018723;28;46589;-85
2021/12/06 03:54:49;;;;;;;;;8.00;6.25;;;;;8.98;66.58;101187.91;5020434;28;45666;-81
2021/12/06 03:57:15;;;;;;;;;6.75;6.25;;;;;9.00;66.83;101199.22;5008199;28;45323;-85
2021/12/06 03:59:41;;;;;;;;;7.75;6.00;;;;;9.00;66.58;101196.59;5021280;28;45417;-85
2021/12/06 04:02:07;;;;;;;;;9.75;7.25;;;;;9.03;66.76;101196.56;5020605;28;46235;-84
2021/12/06 04:04:33;;;;;;;;;8.25;8.00;;;;;9.03;67.18;101199.16;5017031;28;45449;-83
2021/12/06 04:06:58;;;;;;;;;9.25;7.50;;;;;9.05;67.58;101200.00;5016532;28;45395;-87
2021/12/06 04:09:23;;;;;;;;;8.50;7.75;;;;;9.07;67.25;101202.59;5020449;28;47145;-87
2021/12/06 04:11:50;;;;;;;;;13.75;8.50;;;;;9.06;66.95;101208.75;5019597;28;46256;-83
2021/12/06 04:14:15;;;;;;;;;11.25;6.50;;;;;9.07;67.04;101218.31;5016201;28;45770;-85
2021/12/06 04:16:42;;;;;;;;;11.50;7.75;;;;;9.10;67.28;101234.88;5014209;28;45169;-82
2021/12/06 04:19:08;;;;;;;;;10.25;8.75;;;;;9.12;67.11;101237.44;5012559;28;45418;-83
2021/12/06 04:21:33;;;;;;;;;7.00;7.00;;;;;9.13;67.16;101238.31;5012159;28;45284;-84
2021/12/06 04:24:00;;;;;;;;;6.00;5.50;;;;;9.12;67.23;101242.69;5013686;28;45414;-84
2021/12/06 04:26:26;;;;;;;;;7.00;6.75;;;;;9.15;67.52;101245.28;5019569;28;45425;-85
2021/12/06 04:28:59;;;;;;;;;8.75;7.00;;;;;9.15;67.54;101241.78;5018187;28;45351;-85
2021/12/06 04:31:27;;;;;;;;;8.25;5.75;;;;;9.14;67.55;101240.91;5004264;28;46215;-85
2021/12/06 04:33:52;;;;;;;;;7.00;7.00;;;;;9.15;67.25;101247.91;5008994;28;45399;-86
2021/12/06 04:36:17;;;;;;;;;12.50;8.25;;;;;9.16;67.92;101246.16;5018217;28;45530;-86
2021/12/06 04:38:43;;;;;;;;;8.50;8.00;;;;;9.14;67.70;101245.28;5012102;28;45541;-84
2021/12/06 04:41:08;;;;;;;;;9.00;9.00;;;;;9.16;67.48;101248.78;5019271;28;46156;-80
2021/12/06 04:43:34;;;;;;;;;8.00;7.25;;;;;9.15;67.87;101242.66;5016637;28;45193;-81
2021/12/06 04:46:00;;;;;;;;;10.25;8.50;;;;;9.16;67.68;101252.22;5013608;28;45234;-79
2021/12/06 04:48:25;;;;;;;;;7.50;7.00;;;;;9.15;67.59;101255.75;5014539;28;45262;-79
2021/12/06 04:50:51;;;;;;;;;10.00;9.50;;;;;9.17;67.03;101272.34;5005097;28;45517;-79
2021/12/06 04:53:21;;;;;;;;;9.50;7.75;;;;;9.13;67.39;101275.03;5019330;28;45229;-79
2021/12/06 04:55:52;;;;;;;;;12.00;8.00;;;;;9.13;67.57;101278.53;5021410;28;45492;-80
2021/12/06 04:58:25;;;;;;;;;10.00;9.00;;;;;9.10;67.80;101274.22;5014293;28;45567;-79
2021/12/06 05:01:03;;;;;;;;;15.00;8.50;;;;;9.10;68.20;101274.22;5010010;28;46286;-82
2021/12/06 05:03:29;;;;;;;;;9.00;8.00;;;;;9.11;68.01;101272.47;5018082;28;45232;-79
2021/12/06 05:06:01;;;;;;;;;9.25;9.25;;;;;9.12;68.14;101284.66;5020119;28;45340;-80
2021/12/06 05:08:33;;;;;;;;;6.75;6.50;;;;;9.14;68.39;101287.25;5008269;28;45614;-80
2021/12/06 05:11:01;;;;;;;;;11.00;9.25;;;;;9.14;68.03;101280.25;5017863;28;45589;-81
2021/12/06 05:13:28;;;;;;;;;9.75;8.50;;;;;9.16;68.44;101280.25;5014211;28;45498;-81
2021/12/06 05:15:53;;;;;;;;;11.50;9.00;;;;;9.14;68.34;101287.25;5019935;28;45605;-81
2021/12/06 05:18:19;;;;;;;;;10.50;8.00;;;;;9.14;68.43;101298.59;5008622;28;46706;-82
2021/12/06 05:20:44;;;;;;;;;12.00;9.00;;;;;9.14;68.34;101309.09;5004999;28;45450;-83
2021/12/06 05:23:11;;;;;;;;;9.00;9.00;;;;;9.15;68.93;101300.34;5019736;28;45308;-81
2021/12/06 05:25:37;;;;;;;;;9.75;9.50;;;;;9.14;68.45;101300.34;5035378;28;45455;-81
2021/12/06 05:28:04;;;;;;;;;9.50;8.00;;;;;9.14;68.89;101300.34;5015907;28;45547;-80
2021/12/06 05:30:31;;;;;;;;;8.00;8.00;;;;;9.15;68.85;101304.72;5005664;28;46310;-79
2021/12/06 05:32:58;;;;;;;;;10.75;9.75;;;;;9.13;68.47;101304.75;5015189;28;45727;-79
2021/12/06 05:35:25;;;;;;;;;12.25;10.50;;;;;9.13;68.58;101302.13;5007763;28;45392;-82
2021/12/06 05:37:54;;;;;;;;;8.75;7.25;;;;;9.12;68.82;101313.50;5020513;28;45769;-83
2021/12/06 05:40:28;;;;;;;;;8.00;7.00;;;;;9.13;68.50;101328.38;5020328;28;46324;-82
2021/12/06 05:42:55;;;;;;;;;9.75;8.75;;;;;9.12;68.83;101326.63;5011634;28;45426;-81
2021/12/06 05:45:23;;;;;;;;;8.75;8.25;;;;;9.12;68.68;101326.63;5020490;28;45288;-80
2021/12/06 05:47:49;;;;;;;;;9.75;8.75;;;;;9.11;69.07;101319.66;5020527;28;45319;-80
2021/12/06 05:50:16;;;;;;;;;12.75;8.75;;;;;9.12;69.23;101329.25;5013819;28;45544;-77
2021/12/06 05:52:41;;;;;;;;;8.75;7.25;;;;;9.12;68.81;101326.63;5012541;28;45316;-79
2021/12/06 05:55:10;;;;;;;;;8.75;7.50;;;;;9.07;68.88;101326.72;5016567;28;45466;-79
2021/12/06 05:57:36;;;;;;;;;6.50;6.50;;;;;9.07;69.05;101336.31;5015828;28;45177;-79
2021/12/06 06:00:10;;;;;;;;;12.00;6.25;;;;;9.06;68.55;101327.59;5006293;28;46515;-80
2021/12/06 06:02:36;;;;;;;;;4.50;4.50;;;;;9.06;68.81;101332.81;5006981;28;45281;-80
2021/12/06 06:05:02;;;;;;;;;8.25;6.50;;;;;9.04;68.46;101329.38;5016697;28;45213;-80
2021/12/06 06:07:27;;;;;;;;;8.00;7.00;;;;;9.04;68.49;101332.00;5004162;28;45526;-79
2021/12/06 06:09:53;;;;;;;;;10.50;7.00;;;;;9.03;68.85;101334.66;5012973;28;46364;-79
2021/12/06 06:12:18;;;;;;;;;9.25;7.75;;;;;9.01;68.46;101334.69;5019874;28;45292;-78
2021/12/06 06:14:44;;;;;;;;;9.25;6.50;;;;;9.00;68.48;101339.06;5020142;28;45434;-78
2021/12/06 06:17:12;;;;;;;;;8.00;7.00;;;;;9.02;68.76;101341.66;5020027;28;45414;-80
2021/12/06 06:19:46;;;;;;;;;10.25;7.75;;;;;8.99;68.88;101350.44;5016673;28;48048;-80
2021/12/06 06:22:12;;;;;;;;;10.00;10.00;;;;;8.96;68.55;101344.38;5015171;28;45839;-80
2021/12/06 06:24:38;;;;;;;;;7.00;6.25;;;;;8.96;68.63;101353.09;5016554;28;45446;-80
2021/12/06 06:27:04;;;;;;;;;12.50;9.50;;;;;8.95;68.82;101351.38;5019501;28;45517;-80
2021/12/06 06:29:31;;;;;;;;;8.75;8.50;;;;;8.93;68.96;101363.66;5015517;28;47067;-77
2021/12/06 06:31:57;;;;;;;;;8.50;7.50;;;;;8.96;69.12;101360.97;5019694;28;45423;-78
2021/12/06 06:34:22;;;;;;;;;11.00;9.00;;;;;8.94;68.89;101362.75;5019535;28;45287;-85
2021/12/06 06:36:48;;;;;;;;;10.00;9.00;;;;;8.95;68.76;101364.50;5018692;28;45258;-82
2021/12/06 06:39:13;;;;;;;;;9.00;7.25;;;;;8.95;68.70;101367.13;5018142;28;46470;-79
2021/12/06 06:41:39;;;;;;;;;8.25;7.50;;;;;8.95;69.23;101368.88;5018086;28;45386;-81
2021/12/06 06:44:06;;;;;;;;;12.25;10.25;;;;;8.92;68.85;101372.41;5011606;28;45403;-80
2021/12/06 06:46:32;;;;;;;;;9.25;9.00;;;;;8.94;68.69;101367.16;5012708;28;45403;-80
2021/12/06 06:48:58;;;;;;;;;11.00;9.00;;;;;8.93;68.70;101368.91;5019099;28;45445;-80
2021/12/06 06:51:24;;;;;;;;;9.75;8.50;;;;;8.94;69.03;101369.78;5019485;28;45426;-82
2021/12/06 06:53:49;;;;;;;;;16.50;12.50;;;;;8.93;68.73;101363.66;5016603;28;45502;-79
2021/12/06 06:56:15;;;;;;;;;10.75;9.25;;;;;8.93;69.02;101378.50;5019450;28;45213;-79
2021/12/06 06:58:40;;;;;;;;;11.25;10.00;;;;;8.91;68.77;101375.94;5004685;28;46254;-78
2021/12/06 07:01:06;;;;;;;;;13.25;10.25;;;;;8.91;69.03;101386.41;5034459;28;45432;-78
2021/12/06 07:03:32;;;;;;;;;10.00;10.00;;;;;8.93;68.84;101387.25;5006823;28;45209;-78
2021/12/06 07:05:59;;;;;;;;;12.00;11.50;;;;;8.95;69.13;101392.47;5021987;28;45481;-78
2021/12/06 07:08:25;;;;;;;;;13.00;12.00;;;;;8.92;69.35;101393.38;5018370;28;45689;-78
2021/12/06 07:10:51;;;;;;;;;14.00;12.50;;;;;8.93;68.92;101400.34;5018645;28;45367;-78
2021/12/06 07:13:18;;;;;;;;;13.00;10.50;;;;;8.93;68.82;101392.50;5035981;28;45297;-79
2021/12/06 07:15:44;;;;;;;;;12.50;9.50;;;;;8.95;68.96;101398.56;5022890;28;45344;-78
2021/12/06 07:18:09;;;;;;;;;7.75;6.50;;;;;8.94;68.70;101412.56;5020405;28;45481;-79
2021/12/06 07:20:35;;;;;;;;;13.25;12.25;;;;;8.93;69.21;101410.84;5015903;28;45284;-78
2021/12/06 07:23:03;;;;;;;;;14.50;11.25;;;;;8.93;69.10;101420.47;5015195;28;45426;-83
2021/12/06 07:25:30;;;;;;;;;17.25;13.75;;;;;8.90;68.93;101416.13;5031884;28;46070;-83
2021/12/06 07:27:56;;;;;;;;;9.50;9.50;;;;;8.89;68.85;101415.25;5021390;28;45388;-82
2021/12/06 07:30:22;;;;;;;;;11.50;10.00;;;;;8.88;68.97;101418.78;5015811;28;45746;-82
2021/12/06 07:32:50;;;;;;;;;11.25;9.50;;;;;8.92;68.90;101434.44;5014725;28;45426;-83
2021/12/06 07:35:16;;;;;;;;;8.75;8.25;;;;;8.89;68.60;101431.00;5003264;28;45624;-82
2021/12/06 07:37:43;;;;;;;;;12.50;9.50;;;;;8.88;68.97;101433.66;5027780;28;48218;-83
2021/12/06 07:40:11;;;;;;;;;13.25;8.75;;;;;8.85;68.81;101437.19;5023253;28;45769;-82
2021/12/06 07:42:37;;;;;;;;;15.75;11.00;;;;;8.84;68.65;101431.97;5021335;28;45376;-82
2021/12/06 07:45:04;;;;;;;;;9.00;8.00;;;;;8.81;68.77;101424.13;5016182;28;47384;-82
2021/12/06 07:47:30;;;;;;;;;16.25;12.75;;;;;8.80;69.29;101430.25;5018015;28;45378;-82
2021/12/06 07:49:55;;;;;;;;;9.75;8.00;;;;;8.77;69.04;101424.16;5015070;28;45375;-83
2021/12/06 07:52:21;;;;;;;;;11.00;10.00;;;;;8.77;69.13;101429.41;5013961;28;45252;-83
2021/12/06 07:54:46;;;;;;;;;9.50;9.50;;;;;8.80;69.20;101432.88;5019430;28;45439;-84
2021/12/06 07:57:12;;;;;;;;;13.25;11.25;;;;;8.79;68.72;101434.63;5017131;28;46695;-83
2021/12/06 07:59:38;;;;;;;;;15.25;13.00;;;;;8.81;68.83;101422.38;5021827;28;45337;-83
2021/12/06 08:02:06;;;;;;;;;16.50;15.25;;;;;8.83;69.49;101432.84;5021385;28;45234;-84
2021/12/06 08:04:32;;;;;;;;;11.50;10.25;;;;;8.84;68.75;101439.81;5016307;28;46263;-84
2021/12/06 08:06:58;;;;;;;;;14.25;11.25;;;;;8.85;68.96;101433.69;5017678;28;46257;-84
2021/12/06 08:09:23;;;;;;;;;16.50;13.50;;;;;8.89;69.13;101440.59;5020986;28;45392;-84
2021/12/06 08:11:49;;;;;;;;;18.50;12.00;;;;;8.86;68.99;101431.06;5016335;28;45432;-84
2021/12/06 08:14:14;;;;;;;;;13.75;12.25;;;;;8.91;69.39;101427.50;5031286;28;46320;-84
2021/12/06 08:16:43;;;;;;;;;9.75;9.75;;;;;8.89;69.25;101415.25;5018798;28;46171;-83
2021/12/06 08:19:12;;;;;;;;;14.50;12.25;;;;;8.91;69.18;101417.88;5015823;28;46063;-84
2021/12/06 08:21:38;;;;;;;;;13.00;13.00;;;;;8.91;68.94;101428.38;5012040;28;46951;-84
2021/12/06 08:24:04;;;;;;;;;11.00;9.50;;;;;8.91;69.00;101423.13;5015730;28;45339;-83
2021/12/06 08:26:34;;;;;;;;;12.75;12.00;;;;;8.92;69.29;101426.59;5021602;28;46480;-83
2021/12/06 08:29:05;;;;;;;;;14.50;13.00;;;;;8.91;69.31;101423.13;5017342;28;45493;-83
2021/12/06 08:31:30;;;;;;;;;14.50;14.00;;;;;8.89;69.53;101406.53;5016161;28;45486;-83
2021/12/06 08:33:56;;;;;;;;;16.00;14.25;;;;;8.90;69.27;101403.03;5007904;28;45417;-83
2021/12/06 08:36:22;;;;;;;;;18.00;12.75;;;;;8.92;69.20;101416.97;5016632;28;46182;-83
2021/12/06 08:38:49;;;;;;;;;19.00;17.25;;;;;8.92;69.02;101401.25;5010395;28;45419;-84
2021/12/06 08:41:17;;;;;;;;;10.50;10.50;;;;;8.91;69.22;101396.91;5016073;28;45470;-84
2021/12/06 08:43:44;;;;;;;;;18.25;12.25;;;;;8.92;69.07;101419.59;5005406;28;45421;-84
2021/12/06 08:46:15;;;;;;;;;15.75;13.75;;;;;8.90;69.29;101418.75;5021031;28;46624;-84
2021/12/06 08:48:41;;;;;;;;;16.00;14.00;;;;;8.93;69.27;101423.09;5021105;28;45972;-83
2021/12/06 08:51:19;;;;;;;;;15.00;13.50;;;;;8.93;69.95;101421.34;5015653;28;45486;-84
2021/12/06 08:53:46;;;;;;;;;12.75;11.50;;;;;8.93;69.20;101417.84;5019470;28;45219;-83
2021/12/06 08:56:12;;;;;;;;;17.75;13.00;;;;;8.95;69.98;101422.19;5020661;28;46375;-83
2021/12/06 08:58:37;;;;;;;;;16.00;15.50;;;;;8.97;69.64;101412.53;5013803;28;46173;-84
2021/12/06 09:01:04;;;;;;;;;15.75;12.00;;;;;9.00;69.40;101401.13;5008785;28;46049;-84
2021/12/06 09:03:30;;;;;;;;;19.50;14.75;;;;;9.00;69.41;101406.38;5013556;28;45348;-84
2021/12/06 09:05:57;;;;;;;;;16.25;15.00;;;;;9.05;69.46;101401.06;5020432;28;46157;-84
2021/12/06 09:08:24;;;;;;;;;14.75;14.50;;;;;9.09;69.42;101413.22;5007650;28;45890;-84
2021/12/06 09:10:52;;;;;;;;;17.50;16.50;;;;;9.10;69.55;101410.59;5020026;28;45236;-84
2021/12/06 09:13:22;;;;;;;;;18.25;15.00;;;;;9.12;69.21;101413.16;5020227;28;45656;-84
2021/12/06 09:15:49;;;;;;;;;17.00;14.50;;;;;9.15;69.17;101420.13;5018549;28;47530;-84
2021/12/06 09:18:15;;;;;;;;;18.00;14.00;;;;;9.14;69.21;101411.38;5015844;28;45215;-85
2021/12/06 09:20:44;;;;;;;;;18.00;17.75;;;;;9.14;69.14;101419.25;5019701;28;45186;-84
2021/12/06 09:23:12;;;;;;;;;26.50;23.25;;;;;9.13;68.86;101420.16;5020465;28;45379;-84
2021/12/06 09:25:39;;;;;;;;;26.75;24.00;;;;;9.11;69.29;101425.41;5014985;28;48520;-84
2021/12/06 09:28:05;;;;;;;;;25.00;19.50;;;;;9.11;69.32;101420.16;5015865;28;45818;-84
2021/12/06 09:30:33;;;;;;;;;22.00;19.25;;;;;9.16;68.82;101421.88;5019775;28;45587;-85
2021/12/06 09:33:01;;;;;;;;;27.00;21.75;;;;;9.18;69.18;101431.44;5013970;28;45145;-85
2021/12/06 09:35:28;;;;;;;;;18.75;17.75;;;;;9.19;68.58;101427.91;5007826;28;48543;-84
2021/12/06 09:37:58;;;;;;;;;17.75;17.00;;;;;9.21;69.31;101420.03;5015439;28;45422;-84
2021/12/06 09:40:27;;;;;;;;;18.25;16.00;;;;;9.23;69.42;101413.84;5020866;28;45184;-84
2021/12/06 09:42:54;;;;;;;;;19.50;17.00;;;;;9.31;69.14;101421.59;5013920;28;45347;-84
2021/12/06 09:45:23;;;;;;;;;18.75;17.50;;;;;9.35;68.51;101409.31;5020446;28;45304;-84
2021/12/06 09:47:51;;;;;;;;;17.25;15.75;;;;;9.40;68.76;101414.47;5016686;28;45863;-84
2021/12/06 09:50:21;;;;;;;;;22.50;17.00;;;;;9.45;69.06;101416.16;5017767;28;45354;-84
2021/12/06 09:52:47;;;;;;;;;19.50;16.50;;;;;9.46;68.95;101419.59;5018958;28;45212;-84
2021/12/06 09:55:13;;;;;;;;;19.50;17.50;;;;;9.47;68.29;101405.59;5019216;28;46765;-84
2021/12/06 09:57:39;;;;;;;;;17.25;15.50;;;;;9.47;68.19;101407.34;5006817;28;45315;-84
2021/12/06 10:00:07;;;;;;;;;21.50;17.00;;;;;9.50;68.27;101413.44;5010780;28;45526;-84
2021/12/06 10:02:32;;;;;;;;;21.25;17.25;;;;;9.54;68.28;101407.22;5018834;28;45532;-84
2021/12/06 10:04:58;;;;;;;;;21.00;19.00;;;;;9.60;68.67;101411.50;5014709;28;45383;-84
2021/12/06 10:07:25;;;;;;;;;23.50;21.00;;;;;9.63;68.19;101408.81;5008669;28;45457;-84
2021/12/06 10:09:53;;;;;;;;;23.75;19.50;;;;;9.64;68.40;101399.19;5015369;28;45302;-84
2021/12/06 10:12:20;;;;;;;;;19.75;15.75;;;;;9.67;68.40;101405.25;5013606;28;45437;-85
2021/12/06 10:14:46;;;;;;;;;20.50;17.00;;;;;9.71;67.95;101416.53;5011384;28;45432;-85
2021/12/06 10:17:15;;;;;;;;;15.25;13.75;;;;;9.67;66.82;101407.88;5031743;28;45292;-85
2021/12/06 10:19:42;;;;;;;;;16.25;15.50;;;;;9.70;67.20;101403.47;5019721;28;45278;-86
2021/12/06 10:22:07;;;;;;;;;15.75;15.00;;;;;9.74;67.13;101397.25;5009581;28;45486;-86
2021/12/06 10:24:33;;;;;;;;;15.00;12.75;;;;;9.76;67.46;101385.81;5013709;28;46454;-86
2021/12/06 10:27:09;;;;;;;;;15.25;15.25;;;;;9.81;66.63;101372.59;5014016;28;45406;-86
2021/12/06 10:29:39;;;;;;;;;17.25;15.25;;;;;9.83;66.51;101376.06;5008539;28;45417;-86
2021/12/06 10:32:12;;;;;;;;;19.50;18.00;;;;;9.84;66.19;101372.56;5009132;28;46492;-86
2021/12/06 10:34:43;;;;;;;;;16.75;13.50;;;;;9.86;66.93;101364.63;5018608;28;45639;-85
2021/12/06 10:37:26;;;;;;;;;15.25;13.00;;;;;9.94;66.77;101361.88;5014633;28;45198;-86
2021/12/06 10:39:53;;;;;;;;;18.25;13.00;;;;;9.97;66.59;101352.19;5014571;28;45466;-86
2021/12/06 10:42:33;;;;;;;;;16.25;13.75;;;;;9.97;66.26;101339.03;4998843;28;47550;-87
2021/12/06 10:45:12;;;;;;;;;17.50;14.00;;;;;9.99;65.71;101332.00;5010601;28;48116;-87
2021/12/06 10:47:38;;;;;;;;;10.00;10.00;;;;;9.96;65.63;101334.69;5030417;28;46097;-87
2021/12/06 10:50:17;;;;;;;;;11.75;11.25;;;;;9.94;65.68;101344.34;5016329;28;45277;-87
2021/12/06 10:52:56;;;;;;;;;18.25;15.00;;;;;9.99;65.31;101336.38;5017688;28;46188;-87
2021/12/06 10:55:25;;;;;;;;;15.00;12.25;;;;;10.04;65.68;101326.66;5015417;28;45244;-87
2021/12/06 10:57:58;;;;;;;;;8.50;8.25;;;;;10.10;65.70;101330.91;5029059;28;45620;-87
2021/12/06 11:01:13;;;;;;;;;13.25;12.75;;;;;10.17;65.53;101323.75;5014301;28;45359;-87
2021/12/06 11:03:47;;;;;;;;;14.00;12.00;;;;;10.21;65.34;101317.53;5007897;28;45286;-87
2021/12/06 11:06:19;;;;;;;;;8.25;7.75;;;;;10.21;63.50;101315.78;5018397;28;45556;-87
2021/12/06 11:08:47;;;;;;;;;9.75;8.00;;;;;10.23;64.79;101318.34;5014515;28;45271;-88
2021/12/06 11:11:28;;;;;;;;;11.00;9.50;;;;;10.23;64.64;101310.47;5013568;28;45328;-87
2021/12/06 11:14:06;;;;;;;;;11.75;10.50;;;;;10.26;64.20;101313.03;5018984;28;45395;-87
2021/12/06 11:16:34;;;;;;;;;8.25;8.25;;;;;10.27;64.59;101312.16;5017490;28;45447;-87
2021/12/06 11:19:05;;;;;;;;;13.50;10.75;;;;;10.31;65.04;101308.53;5013320;28;45859;-88
2021/12/06 11:21:33;;;;;;;;;8.75;8.75;;;;;10.33;64.78;101300.63;5018679;28;45217;-87
2021/12/06 11:24:25;;;;;;;;;8.50;8.50;;;;;10.34;63.95;101307.63;5016296;28;46088;-87
2021/12/06 11:27:25;;;;;;;;;12.00;11.00;;;;;10.37;64.43;101311.94;5013894;28;47619;-88
2021/12/06 11:29:54;;;;;;;;;12.75;11.75;;;;;10.34;64.19;101313.75;5011221;28;46092;-87
2021/12/06 11:32:27;;;;;;;;;13.00;12.25;;;;;10.39;64.95;101312.75;5004750;28;45477;-87
2021/12/06 11:34:57;;;;;;;;;11.00;11.00;;;;;10.43;64.86;101315.28;5026470;28;46953;-88
2021/12/06 11:37:24;;;;;;;;;10.00;9.75;;;;;10.49;64.81;101316.03;5004230;28;45439;-87
2021/12/06 11:40:00;;;;;;;;;13.25;12.25;;;;;10.43;63.38;101301.28;5009739;28;45682;-88
2021/12/06 11:42:26;;;;;;;;;15.00;12.75;;;;;10.42;63.99;101296.94;4997826;28;45470;-88